KARV/ARV METAR and TAF weather

Enter ICAO airport designator
Station Type Date Time Source
KARV METAR 2021/03/07 08:35 UTC NOAA

KARV 070835Z AUTO 14003KT 10SM CLR M09/M14 A3030 RMK AO2 T10911138


Station Type Date Time Source
KARV Decoded METAR 2021/03/07 08:35 UTC NOAA

Minocqua/Woodruff, Lakeland Airport/Noble F. Lee Memorial Field, WI, United States (KARV) 45-56N 089-44W
Mar 07, 2021 - 03:35 AM EST / 2021.03.07 0835 UTC
Wind: from the SE (140 degrees) at 3 MPH (3 KT):0
Visibility: 10 mile(s):0
Sky conditions: clear
Temperature: 15.6 F (-9.1 C)
Dew Point: 7.2 F (-13.8 C)
Relative Humidity: 68%
Pressure (altimeter): 30.3 in. Hg (1026 hPa)
ob: KARV 070835Z AUTO 14003KT 10SM CLR M09/M14 A3030 RMK AO2 T10911138
cycle: 8

Station Type Date Time Source
KARV TAF UTC NOAA

Error!

Example: see airport list